createdAt,value
2023-10-23T00:01:55.654Z,15.10
2023-10-23T00:04:19.888Z,15.00
2023-10-23T00:06:43.893Z,14.90
2023-10-23T00:09:07.848Z,14.90
2023-10-23T00:11:33.704Z,14.90
2023-10-23T00:13:58.241Z,14.80
2023-10-23T00:16:22.499Z,14.80
2023-10-23T00:18:46.605Z,14.70
2023-10-23T00:21:10.793Z,14.60
2023-10-23T00:23:34.581Z,14.60
2023-10-23T00:25:58.449Z,14.60
2023-10-23T00:28:23.545Z,14.40
2023-10-23T00:30:47.388Z,14.40
2023-10-23T00:33:11.248Z,14.20
2023-10-23T00:35:35.979Z,14.20
2023-10-23T00:37:59.783Z,14.20
2023-10-23T00:40:24.272Z,14.30
2023-10-23T00:42:48.165Z,14.20
2023-10-23T00:45:13.509Z,14.10
2023-10-23T00:47:38.205Z,14.10
2023-10-23T00:50:02.198Z,14.10
2023-10-23T00:52:26.325Z,14.10
2023-10-23T00:54:50.391Z,13.90
2023-10-23T00:57:14.557Z,13.90
2023-10-23T00:59:38.469Z,13.90
2023-10-23T01:02:04.721Z,13.80
2023-10-23T01:04:29.380Z,13.80
2023-10-23T01:06:53.322Z,13.80
2023-10-23T01:09:17.265Z,13.70
2023-10-23T01:11:41.069Z,13.80
2023-10-23T01:14:04.952Z,13.90
2023-10-23T01:16:28.910Z,14.00
2023-10-23T01:18:54.397Z,14.00
2023-10-23T01:21:18.246Z,14.00
2023-10-23T01:23:46.519Z,14.00
2023-10-23T01:26:11.703Z,14.00
2023-10-23T01:28:35.588Z,14.00
2023-10-23T01:30:59.784Z,14.00
2023-10-23T01:33:23.788Z,14.10
2023-10-23T01:35:47.767Z,14.00
2023-10-23T01:38:12.233Z,14.00
2023-10-23T01:40:36.124Z,14.00
2023-10-23T01:43:01.543Z,14.10
2023-10-23T01:45:25.574Z,14.00
2023-10-23T01:47:49.511Z,14.00
2023-10-23T01:50:13.517Z,13.90
2023-10-23T01:52:37.380Z,13.90
2023-10-23T01:55:01.177Z,13.90
2023-10-23T01:57:25.507Z,13.90
2023-10-23T01:59:50.887Z,13.80
2023-10-23T02:02:14.860Z,13.80
2023-10-23T02:04:40.707Z,13.90
2023-10-23T02:07:05.125Z,13.90
2023-10-23T02:09:30.024Z,13.90
2023-10-23T02:11:53.799Z,14.00
2023-10-23T02:14:17.572Z,13.90
2023-10-23T02:16:41.952Z,14.00
2023-10-23T02:19:06.239Z,13.90
2023-10-23T02:21:30.219Z,13.90
2023-10-23T02:23:57.056Z,13.90
2023-10-23T02:26:21.656Z,13.90
2023-10-23T02:28:45.497Z,13.80
2023-10-23T02:31:10.409Z,13.80
2023-10-23T02:33:37.546Z,13.80
2023-10-23T02:36:01.332Z,13.70
2023-10-23T02:38:25.238Z,13.50
2023-10-23T02:40:53.837Z,13.40
2023-10-23T02:43:18.172Z,13.40
2023-10-23T02:45:42.014Z,13.40
2023-10-23T02:48:06.204Z,13.40
2023-10-23T02:50:31.411Z,13.40
2023-10-23T02:52:55.226Z,13.40
2023-10-23T02:55:19.218Z,13.40
2023-10-23T02:57:43.341Z,13.30
2023-10-23T03:00:08.787Z,13.30
2023-10-23T03:02:32.794Z,13.30
2023-10-23T03:04:56.898Z,13.20
2023-10-23T03:07:22.310Z,13.10
2023-10-23T03:09:46.218Z,13.00
2023-10-23T03:12:10.193Z,13.00
2023-10-23T03:14:34.451Z,13.00
2023-10-23T03:16:58.708Z,13.10
2023-10-23T03:19:25.581Z,13.00
2023-10-23T03:21:49.542Z,13.10
2023-10-23T03:24:14.925Z,13.10
2023-10-23T03:26:38.781Z,13.10
2023-10-23T03:29:05.286Z,13.10
2023-10-23T03:31:29.323Z,13.10
2023-10-23T03:33:53.557Z,13.10
2023-10-23T03:36:18.302Z,13.10
2023-10-23T03:38:44.076Z,13.10
2023-10-23T03:41:09.392Z,13.10
2023-10-23T03:43:33.721Z,13.10
2023-10-23T03:45:58.138Z,13.10
2023-10-23T03:48:22.300Z,13.10
2023-10-23T03:50:46.368Z,13.10
2023-10-23T03:53:10.211Z,13.20
2023-10-23T03:55:38.486Z,13.20
2023-10-23T03:58:03.668Z,13.20
2023-10-23T04:00:27.667Z,13.20
2023-10-23T04:02:53.467Z,13.30
2023-10-23T04:05:17.514Z,13.30
2023-10-23T04:07:41.361Z,13.30
2023-10-23T04:10:08.651Z,13.40
2023-10-23T04:12:32.535Z,13.40
2023-10-23T04:14:58.209Z,13.40
2023-10-23T04:17:22.395Z,13.50
2023-10-23T04:19:49.598Z,13.50
2023-10-23T04:22:13.472Z,13.60
2023-10-23T04:24:37.450Z,13.70
2023-10-23T04:27:01.279Z,13.80
2023-10-23T04:29:25.241Z,13.80
2023-10-23T04:31:50.488Z,13.80
2023-10-23T04:34:15.851Z,13.90
2023-10-23T04:36:39.719Z,13.90
2023-10-23T04:39:03.636Z,13.90
2023-10-23T04:41:27.512Z,13.90
2023-10-23T04:43:51.506Z,13.90
2023-10-23T04:46:15.430Z,13.90
2023-10-23T04:48:40.741Z,13.90
2023-10-23T04:51:04.632Z,13.90
2023-10-23T04:53:28.601Z,13.90
2023-10-23T04:55:52.676Z,14.00
2023-10-23T04:58:16.640Z,14.10
2023-10-23T05:00:40.906Z,14.10
2023-10-23T05:03:05.732Z,14.20
2023-10-23T05:05:30.998Z,14.20
2023-10-23T05:07:54.786Z,14.20
2023-10-23T05:10:19.533Z,14.30
2023-10-23T05:12:46.284Z,14.40
2023-10-23T05:15:10.977Z,14.60
2023-10-23T05:17:35.085Z,14.70
2023-10-23T05:19:59.131Z,14.80
2023-10-23T05:22:24.542Z,14.90
2023-10-23T05:24:48.650Z,15.10
2023-10-23T05:27:12.938Z,15.20
2023-10-23T05:29:36.930Z,15.50
2023-10-23T05:32:01.075Z,15.70
2023-10-23T05:34:24.991Z,16.00
2023-10-23T05:36:49.448Z,16.10
2023-10-23T05:39:14.858Z,16.30
2023-10-23T05:41:38.971Z,16.30
2023-10-23T05:44:05.799Z,16.40
2023-10-23T05:46:31.574Z,16.50
2023-10-23T05:48:55.877Z,16.60
2023-10-23T05:51:20.027Z,16.70
2023-10-23T05:53:43.962Z,16.90
2023-10-23T05:56:09.571Z,17.10
2023-10-23T05:58:38.321Z,17.20
2023-10-23T06:01:06.910Z,17.30
2023-10-23T06:03:30.998Z,17.40
2023-10-23T06:05:55.150Z,17.50
2023-10-23T06:08:19.119Z,17.60
2023-10-23T06:10:43.717Z,17.80
2023-10-23T06:13:09.140Z,18.20
2023-10-23T06:15:34.856Z,18.50
2023-10-23T06:17:58.792Z,18.60
2023-10-23T06:20:22.678Z,18.80
2023-10-23T06:22:46.747Z,18.80
2023-10-23T06:25:10.907Z,19.20
2023-10-23T06:27:35.045Z,19.40
2023-10-23T06:30:00.393Z,19.60
2023-10-23T06:32:26.611Z,20.10
2023-10-23T06:34:53.084Z,20.20
2023-10-23T06:37:18.315Z,20.30
2023-10-23T06:39:42.450Z,20.60
2023-10-23T06:42:06.844Z,20.60
2023-10-23T06:44:31.321Z,20.60
2023-10-23T06:46:56.663Z,20.70
2023-10-23T06:49:20.566Z,21.00
2023-10-23T06:51:44.504Z,21.40
2023-10-23T06:54:08.620Z,21.70
2023-10-23T06:56:32.647Z,21.50
2023-10-23T06:58:56.514Z,22.00
2023-10-23T07:01:33.654Z,22.00
2023-10-23T07:04:06.821Z,22.50
2023-10-23T07:06:30.958Z,22.80
2023-10-23T07:09:03.948Z,23.00
2023-10-23T07:11:31.520Z,23.20
2023-10-23T07:14:03.748Z,23.90
2023-10-23T07:16:28.528Z,24.10
2023-10-23T07:18:52.748Z,24.20
2023-10-23T07:21:18.173Z,24.90
2023-10-23T07:23:42.134Z,25.10
2023-10-23T07:26:09.369Z,25.90
2023-10-23T07:28:33.297Z,25.60
2023-10-23T07:30:57.210Z,25.80
2023-10-23T07:33:21.112Z,25.90
2023-10-23T07:35:53.495Z,25.70
2023-10-23T07:38:19.779Z,26.00
2023-10-23T07:40:45.323Z,26.30
2023-10-23T07:43:09.357Z,26.70
2023-10-23T07:45:33.206Z,26.90
2023-10-23T07:47:58.898Z,27.20
2023-10-23T07:50:25.803Z,27.50
2023-10-23T07:52:50.466Z,27.50
2023-10-23T07:55:15.896Z,27.30
2023-10-23T07:57:39.831Z,27.50
2023-10-23T08:00:07.303Z,27.60
2023-10-23T08:02:31.404Z,27.80
2023-10-23T08:04:56.453Z,28.30
2023-10-23T08:07:20.495Z,29.20
2023-10-23T08:09:44.651Z,29.80
2023-10-23T08:12:13.690Z,30.50
2023-10-23T08:14:38.415Z,30.30
2023-10-23T08:17:02.507Z,29.80
2023-10-23T08:19:26.638Z,30.00
2023-10-23T08:21:50.892Z,30.20
2023-10-23T08:24:15.271Z,30.20
2023-10-23T08:26:39.439Z,30.50
2023-10-23T08:29:06.131Z,30.90
2023-10-23T08:31:39.493Z,30.00
2023-10-23T08:34:04.923Z,30.10
2023-10-23T08:36:28.888Z,30.20
2023-10-23T08:38:52.855Z,29.90
2023-10-23T08:41:16.891Z,29.70
2023-10-23T08:43:41.725Z,29.60
2023-10-23T08:46:09.346Z,29.40
2023-10-23T08:48:33.535Z,29.20
2023-10-23T08:50:59.048Z,29.20
2023-10-23T08:53:25.481Z,29.10
2023-10-23T08:55:52.256Z,29.00
2023-10-23T08:58:17.097Z,28.20
2023-10-23T09:00:41.021Z,28.00
2023-10-23T09:03:07.723Z,27.80
2023-10-23T09:05:31.711Z,27.60
2023-10-23T09:07:56.011Z,27.80
2023-10-23T09:10:19.975Z,27.70
2023-10-23T09:12:44.914Z,27.70
2023-10-23T09:15:18.440Z,27.90
2023-10-23T09:17:41.554Z,27.90
2023-10-23T09:20:26.535Z,27.80
2023-10-23T09:22:53.668Z,27.50
2023-10-23T09:25:18.106Z,27.50
2023-10-23T09:27:42.303Z,27.80
2023-10-23T09:30:07.509Z,28.10
2023-10-23T09:32:32.570Z,28.00
2023-10-23T09:34:57.606Z,28.10
2023-10-23T09:37:23.097Z,28.20
2023-10-23T09:39:47.762Z,28.40
2023-10-23T09:42:13.111Z,28.60
2023-10-23T09:44:38.846Z,28.80
2023-10-23T09:47:04.260Z,29.00
2023-10-23T09:49:29.386Z,28.80
2023-10-23T09:51:56.192Z,28.90
2023-10-23T09:54:22.186Z,28.90
2023-10-23T09:56:50.811Z,28.60
2023-10-23T09:59:18.565Z,28.20
2023-10-23T10:01:44.068Z,28.00
2023-10-23T10:04:15.101Z,27.80
2023-10-23T10:06:44.074Z,27.80
2023-10-23T10:09:13.518Z,27.70
2023-10-23T10:11:39.909Z,27.60
2023-10-23T10:14:05.451Z,27.40
2023-10-23T10:16:29.665Z,27.50
2023-10-23T10:18:56.323Z,27.40
2023-10-23T10:21:24.945Z,27.20
2023-10-23T10:23:49.168Z,27.20
2023-10-23T10:26:13.173Z,27.20
2023-10-23T10:28:42.178Z,26.80
2023-10-23T10:31:06.222Z,26.50
2023-10-23T10:34:19.598Z,26.40
2023-10-23T10:36:46.069Z,26.10
2023-10-23T10:39:06.745Z,25.90
2023-10-23T10:41:30.653Z,25.80
2023-10-23T10:43:55.998Z,25.80
2023-10-23T10:46:22.630Z,25.80
2023-10-23T10:48:48.343Z,25.90
2023-10-23T10:51:14.155Z,25.90
2023-10-23T10:53:41.588Z,26.00
2023-10-23T10:56:09.352Z,26.20
2023-10-23T10:58:33.353Z,26.20
2023-10-23T11:01:01.195Z,26.20
2023-10-23T11:03:25.933Z,26.30
2023-10-23T11:05:49.939Z,26.30
2023-10-23T11:08:14.054Z,26.50
2023-10-23T11:10:37.796Z,26.40
2023-10-23T11:13:02.674Z,26.20
2023-10-23T11:15:27.199Z,26.20
2023-10-23T11:17:53.236Z,26.20
2023-10-23T11:20:18.042Z,26.30
2023-10-23T11:22:43.958Z,26.30
2023-10-23T11:25:10.353Z,26.30
2023-10-23T11:27:34.499Z,26.40
2023-10-23T11:29:58.373Z,26.50
2023-10-23T11:32:22.902Z,26.60
2023-10-23T11:34:48.941Z,26.60
2023-10-23T11:37:14.190Z,26.60
2023-10-23T11:39:40.059Z,26.50
2023-10-23T11:42:04.912Z,26.50
2023-10-23T11:44:29.626Z,26.50
2023-10-23T11:46:55.509Z,26.50
2023-10-23T11:49:22.034Z,26.50
2023-10-23T11:51:49.824Z,26.40
2023-10-23T11:54:14.675Z,26.40
2023-10-23T11:56:39.320Z,26.30
2023-10-23T11:59:03.824Z,26.30
2023-10-23T12:01:31.219Z,26.30
2023-10-23T12:03:58.497Z,26.30
2023-10-23T12:06:22.857Z,26.40
2023-10-23T12:08:48.452Z,26.40
2023-10-23T12:11:12.657Z,26.40
2023-10-23T12:13:38.686Z,26.40
2023-10-23T12:16:02.930Z,26.40
2023-10-23T12:18:27.721Z,26.40
2023-10-23T12:20:53.026Z,26.40
2023-10-23T12:23:17.201Z,26.40
2023-10-23T12:25:43.688Z,26.30
2023-10-23T12:28:07.695Z,26.20
2023-10-23T12:30:31.640Z,26.20
2023-10-23T12:33:13.889Z,26.10
2023-10-23T12:35:40.164Z,26.10
2023-10-23T12:38:04.581Z,26.00
2023-10-23T12:40:31.612Z,26.00
2023-10-23T12:42:59.550Z,25.90
2023-10-23T12:45:23.773Z,25.80
2023-10-23T12:47:47.986Z,25.70
2023-10-23T12:50:12.591Z,25.60
2023-10-23T12:52:37.158Z,25.60
2023-10-23T12:55:01.173Z,25.50
2023-10-23T12:57:25.248Z,25.40
2023-10-23T12:59:50.825Z,25.40
2023-10-23T13:02:14.866Z,25.30
2023-10-23T13:04:39.103Z,25.20
2023-10-23T13:07:03.490Z,25.20
2023-10-23T13:09:27.645Z,25.10
2023-10-23T13:12:00.936Z,25.10
2023-10-23T13:14:25.236Z,25.00
2023-10-23T13:16:50.934Z,24.90
2023-10-23T13:19:17.010Z,24.90
2023-10-23T13:21:41.054Z,24.80
2023-10-23T13:24:06.331Z,24.80
2023-10-23T13:26:33.820Z,24.70
2023-10-23T13:28:58.104Z,24.70
2023-10-23T13:31:22.488Z,24.60
2023-10-23T13:33:48.465Z,24.50
2023-10-23T13:36:12.904Z,24.50
2023-10-23T13:38:37.377Z,24.50
2023-10-23T13:41:03.578Z,24.40
2023-10-23T13:43:30.066Z,24.40
2023-10-23T13:45:54.118Z,24.30
2023-10-23T13:48:18.657Z,24.30
2023-10-23T13:50:50.256Z,24.30
2023-10-23T13:53:14.508Z,24.30
2023-10-23T13:55:39.113Z,24.30
2023-10-23T13:58:04.367Z,24.30
2023-10-23T14:00:28.283Z,24.20
2023-10-23T14:02:52.465Z,24.20
2023-10-23T14:05:17.213Z,24.20
2023-10-23T14:07:43.200Z,24.20
2023-10-23T14:10:11.240Z,24.10
2023-10-23T14:12:48.048Z,24.10
2023-10-23T14:15:13.030Z,24.10
2023-10-23T14:17:37.854Z,24.00
2023-10-23T14:20:01.811Z,24.00
2023-10-23T14:22:25.835Z,24.00
2023-10-23T14:24:51.134Z,24.00
2023-10-23T14:27:15.180Z,23.90
2023-10-23T14:29:39.346Z,23.90
2023-10-23T14:32:03.525Z,23.90
2023-10-23T14:34:28.533Z,23.80
2023-10-23T14:36:52.601Z,23.80
2023-10-23T14:39:16.586Z,23.80
2023-10-23T14:41:41.915Z,23.80
2023-10-23T14:44:06.390Z,23.70
2023-10-23T14:46:30.389Z,23.70
2023-10-23T14:48:54.788Z,23.70
2023-10-23T14:51:18.824Z,23.60
2023-10-23T14:53:45.480Z,23.60
2023-10-23T14:56:12.685Z,23.60
2023-10-23T14:58:38.244Z,23.50
2023-10-23T15:01:02.131Z,23.50
2023-10-23T15:03:26.617Z,23.50
2023-10-23T15:05:50.577Z,23.50
2023-10-23T15:08:14.502Z,23.40
2023-10-23T15:10:39.523Z,23.40
2023-10-23T15:13:03.572Z,23.40
2023-10-23T15:15:33.050Z,23.30
2023-10-23T15:17:56.999Z,23.30
2023-10-23T15:20:21.290Z,23.20
2023-10-23T15:22:45.172Z,23.20
2023-10-23T15:25:11.042Z,23.10
2023-10-23T15:27:36.771Z,23.10
2023-10-23T15:30:32.628Z,23.10
2023-10-23T15:33:00.596Z,23.00
2023-10-23T15:35:24.614Z,22.80
2023-10-23T15:37:48.937Z,22.70
2023-10-23T15:40:14.316Z,22.60
2023-10-23T15:42:38.294Z,22.50
2023-10-23T15:45:02.412Z,22.40
2023-10-23T15:47:26.559Z,22.20
2023-10-23T15:49:51.816Z,22.10
2023-10-23T15:52:15.677Z,22.00
2023-10-23T15:54:40.108Z,22.00
2023-10-23T15:57:04.783Z,21.80
2023-10-23T15:59:30.149Z,21.80
2023-10-23T16:01:54.392Z,21.70
2023-10-23T16:04:18.647Z,21.70
2023-10-23T16:06:45.534Z,21.60
2023-10-23T16:09:22.099Z,21.40
2023-10-23T16:11:51.786Z,21.40
2023-10-23T16:14:15.901Z,21.30
2023-10-23T16:16:40.823Z,21.20
2023-10-23T16:19:06.944Z,21.20
2023-10-23T16:21:31.071Z,21.10
2023-10-23T16:23:56.263Z,21.00
2023-10-23T16:26:20.225Z,21.00
2023-10-23T16:28:44.011Z,20.80
2023-10-23T16:31:09.711Z,20.80
2023-10-23T16:33:34.388Z,20.70
2023-10-23T16:35:58.330Z,20.70
2023-10-23T16:38:22.221Z,20.70
2023-10-23T16:40:47.454Z,20.70
2023-10-23T16:43:14.463Z,20.70
2023-10-23T16:45:38.586Z,20.60
2023-10-23T16:48:04.253Z,20.60
2023-10-23T16:50:28.759Z,20.50
2023-10-23T16:52:52.729Z,20.40
2023-10-23T16:55:17.328Z,20.30
2023-10-23T16:57:43.119Z,20.30
2023-10-23T17:00:10.979Z,20.30
2023-10-23T17:02:38.619Z,20.30
2023-10-23T17:05:04.507Z,20.20
2023-10-23T17:07:31.320Z,20.20
2023-10-23T17:09:55.675Z,20.20
2023-10-23T17:12:19.584Z,20.10
2023-10-23T17:14:44.888Z,20.10
2023-10-23T17:17:08.897Z,20.00
2023-10-23T17:19:32.796Z,19.80
2023-10-23T17:21:59.550Z,19.80
2023-10-23T17:24:23.449Z,19.70
2023-10-23T17:26:54.464Z,19.60
2023-10-23T17:29:22.061Z,19.50
2023-10-23T17:31:47.967Z,19.40
2023-10-23T17:34:13.935Z,19.30
2023-10-23T17:36:37.936Z,19.20
2023-10-23T17:39:05.832Z,19.10
2023-10-23T17:41:29.758Z,19.10
2023-10-23T17:43:54.343Z,19.10
2023-10-23T17:46:21.910Z,19.00
2023-10-23T17:48:48.250Z,19.00
2023-10-23T17:51:16.707Z,19.00
2023-10-23T17:53:53.714Z,19.00
2023-10-23T17:56:26.751Z,19.00
2023-10-23T17:58:55.595Z,19.00
2023-10-23T18:01:19.640Z,18.90
2023-10-23T18:03:49.823Z,18.90
2023-10-23T18:06:13.781Z,18.80
2023-10-23T18:08:37.764Z,18.70
2023-10-23T18:11:01.679Z,18.70
2023-10-23T18:13:26.888Z,18.70
2023-10-23T18:15:50.790Z,18.70
2023-10-23T18:18:16.289Z,18.60
2023-10-23T18:20:44.669Z,18.60
2023-10-23T18:23:10.649Z,18.40
2023-10-23T18:25:37.831Z,18.40
2023-10-23T18:28:01.883Z,18.40
2023-10-23T18:30:27.438Z,18.40
2023-10-23T18:32:54.412Z,18.30
2023-10-23T18:35:18.473Z,18.20
2023-10-23T18:37:46.551Z,18.20
2023-10-23T18:40:11.245Z,18.10
2023-10-23T18:42:35.809Z,18.10
2023-10-23T18:45:00.988Z,18.10
2023-10-23T18:47:24.991Z,18.10
2023-10-23T18:49:52.469Z,18.10
2023-10-23T18:52:17.503Z,18.10
2023-10-23T18:54:46.007Z,18.20
2023-10-23T18:57:13.833Z,18.10
2023-10-23T18:59:38.126Z,18.10
2023-10-23T19:02:05.110Z,18.10
2023-10-23T19:04:29.140Z,18.10
2023-10-23T19:06:53.948Z,17.90
2023-10-23T19:09:17.850Z,17.80
2023-10-23T19:11:43.077Z,17.70
2023-10-23T19:14:07.076Z,17.60
2023-10-23T19:16:31.141Z,17.60
2023-10-23T19:18:55.069Z,17.60
2023-10-23T19:21:18.975Z,17.60
2023-10-23T19:23:43.672Z,17.70
2023-10-23T19:26:10.796Z,17.70
2023-10-23T19:28:36.572Z,17.70
2023-10-23T19:31:01.370Z,17.70
2023-10-23T19:33:25.821Z,17.60
2023-10-23T19:35:50.583Z,17.60
2023-10-23T19:38:14.914Z,17.50
2023-10-23T19:40:40.033Z,17.50
2023-10-23T19:43:14.461Z,17.40
2023-10-23T19:45:40.474Z,17.40
2023-10-23T19:48:05.134Z,17.40
2023-10-23T19:50:29.819Z,17.40
2023-10-23T19:52:54.628Z,17.40
2023-10-23T19:55:43.559Z,17.30
2023-10-23T19:58:05.549Z,17.40
2023-10-23T20:00:29.358Z,17.40
2023-10-23T20:02:55.925Z,17.40
2023-10-23T20:05:20.131Z,17.40
2023-10-23T20:07:44.084Z,17.40
2023-10-23T20:10:09.733Z,17.30
2023-10-23T20:12:34.926Z,17.20
2023-10-23T20:15:01.316Z,17.30
2023-10-23T20:17:25.398Z,17.30
2023-10-23T20:19:50.866Z,17.20
2023-10-23T20:22:14.764Z,17.20
2023-10-23T20:24:42.379Z,17.10
2023-10-23T20:27:07.724Z,17.00
2023-10-23T20:29:31.692Z,17.00
2023-10-23T20:31:55.663Z,16.80
2023-10-23T20:34:19.674Z,16.70
2023-10-23T20:36:45.017Z,16.60
2023-10-23T20:39:11.288Z,16.60
2023-10-23T20:41:35.282Z,16.50
2023-10-23T20:43:59.062Z,16.40
2023-10-23T20:46:23.073Z,16.40
2023-10-23T20:48:47.489Z,16.30
2023-10-23T20:51:11.946Z,16.20
2023-10-23T20:53:37.383Z,16.20
2023-10-23T20:56:04.533Z,16.30
2023-10-23T20:58:28.417Z,16.20
2023-10-23T21:00:52.242Z,16.10
2023-10-23T21:03:16.313Z,16.00
2023-10-23T21:05:40.116Z,16.00
2023-10-23T21:08:04.224Z,15.90
2023-10-23T21:10:31.881Z,15.90
2023-10-23T21:12:58.676Z,15.80
2023-10-23T21:15:22.563Z,15.80
2023-10-23T21:17:46.671Z,15.70
2023-10-23T21:20:11.779Z,15.70
2023-10-23T21:22:35.812Z,15.70
2023-10-23T21:24:59.594Z,15.70
2023-10-23T21:27:26.005Z,15.70
2023-10-23T21:29:49.880Z,15.60
2023-10-23T21:32:14.164Z,15.40
2023-10-23T21:34:38.042Z,15.50
2023-10-23T21:37:01.956Z,15.40
2023-10-23T21:39:26.239Z,15.40
2023-10-23T21:41:50.743Z,15.40
2023-10-23T21:44:15.961Z,15.40
2023-10-23T21:46:40.077Z,15.40
2023-10-23T21:49:05.210Z,15.40
2023-10-23T21:51:29.241Z,15.30
2023-10-23T21:53:53.826Z,15.30
2023-10-23T21:57:13.178Z,15.30
2023-10-23T21:59:11.331Z,15.20
2023-10-23T22:01:39.186Z,15.40
2023-10-23T22:04:03.949Z,15.40
2023-10-23T22:06:31.305Z,15.40
2023-10-23T22:08:55.592Z,15.40
2023-10-23T22:11:21.224Z,15.40
2023-10-23T22:13:45.389Z,15.40
2023-10-23T22:16:09.391Z,15.30
2023-10-23T22:18:35.819Z,15.40
2023-10-23T22:20:59.755Z,15.40
2023-10-23T22:23:24.077Z,15.40
2023-10-23T22:25:50.829Z,15.30
2023-10-23T22:28:15.604Z,15.20
2023-10-23T22:30:39.739Z,15.10
2023-10-23T22:33:14.452Z,15.00
2023-10-23T22:35:40.547Z,15.10
2023-10-23T22:38:09.537Z,14.90
2023-10-23T22:40:33.697Z,14.90
2023-10-23T22:42:58.678Z,14.90
2023-10-23T22:45:22.491Z,14.80
2023-10-23T22:47:46.507Z,14.70
2023-10-23T22:50:11.645Z,14.60
2023-10-23T22:52:40.479Z,14.60
2023-10-23T22:55:06.311Z,14.50
2023-10-23T22:57:31.694Z,14.50
2023-10-23T22:59:55.971Z,14.50
2023-10-23T23:02:21.773Z,14.40
2023-10-23T23:04:47.121Z,14.40
2023-10-23T23:07:12.831Z,14.20
2023-10-23T23:09:38.988Z,14.10
2023-10-23T23:12:03.250Z,14.10
2023-10-23T23:14:27.710Z,14.10
2023-10-23T23:16:52.395Z,14.10
2023-10-23T23:19:19.484Z,14.10
2023-10-23T23:21:44.852Z,14.10
2023-10-23T23:24:09.890Z,14.00
2023-10-23T23:26:35.900Z,14.00
2023-10-23T23:28:59.776Z,14.10
2023-10-23T23:31:23.772Z,14.00
2023-10-23T23:33:48.052Z,13.90
2023-10-23T23:36:11.885Z,13.90
2023-10-23T23:38:35.774Z,13.90
2023-10-23T23:40:59.748Z,13.70
2023-10-23T23:43:25.648Z,13.70
2023-10-23T23:45:49.537Z,13.60
2023-10-23T23:48:13.411Z,13.60
2023-10-23T23:50:37.200Z,13.60
2023-10-23T23:53:01.284Z,13.60
2023-10-23T23:55:25.298Z,13.50
2023-10-23T23:57:49.131Z,13.60
